Marble, Pennsylvania
Current Conditions -  °F | °C
As of 2:35 AM on Wednesday 22 Oct 2014 (Local Time) from KFKL Reporting Station
Overcast Overcast  
Wind Chill: 41°   Ceiling: 1000
Heat Index: 45°   Visibility: 10mi
Dew Point: 39°   Wind: 6mph
Humidity: 81%   Direction: 350°N
Pressure: 30.06"   Gusts: NA
Location:  41.34°N, 79.44°W
Report Text: KFKL 220635Z 35005KT 10SM OVC010 07/04 A3006 RMK AO1
Loading
Personal Weather Stations






























Interactive Weather Map New forecast layout! Learn more

10-Day Weather Forecast

Advertisements
Track Severe Weather on mobile